createdAt,value
2018-07-23T00:01:26.462Z,20.97
2018-07-23T00:03:55.151Z,20.92
2018-07-23T00:06:23.840Z,20.80
2018-07-23T00:08:52.543Z,20.80
2018-07-23T00:11:21.476Z,20.90
2018-07-23T00:13:50.322Z,20.88
2018-07-23T00:16:19.096Z,20.53
2018-07-23T00:18:47.925Z,20.05
2018-07-23T00:21:16.634Z,20.88
2018-07-23T00:23:45.310Z,20.77
2018-07-23T00:26:14.018Z,20.82
2018-07-23T00:28:42.724Z,20.87
2018-07-23T00:31:11.598Z,20.62
2018-07-23T00:33:40.248Z,20.85
2018-07-23T00:36:08.997Z,20.88
2018-07-23T00:38:37.627Z,22.87
2018-07-23T00:41:06.337Z,22.30
2018-07-23T00:43:35.039Z,23.00
2018-07-23T00:46:03.750Z,23.52
2018-07-23T00:48:32.452Z,23.40
2018-07-23T00:51:01.106Z,23.65
2018-07-23T00:53:29.764Z,23.30
2018-07-23T00:55:58.468Z,23.67
2018-07-23T00:58:27.183Z,23.73
2018-07-23T01:00:55.855Z,23.85
2018-07-23T01:03:24.531Z,24.10
2018-07-23T01:05:53.213Z,23.73
2018-07-23T01:08:21.942Z,24.02
2018-07-23T01:10:50.663Z,24.87
2018-07-23T01:14:48.775Z,24.87
2018-07-23T01:17:17.459Z,25.50
2018-07-23T01:19:46.588Z,24.73
2018-07-23T01:22:15.318Z,26.40
2018-07-23T01:24:43.994Z,26.57
2018-07-23T01:27:12.695Z,26.35
2018-07-23T01:29:41.721Z,26.37
2018-07-23T01:32:10.495Z,26.52
2018-07-23T01:34:39.225Z,26.15
2018-07-23T01:37:08.114Z,27.30
2018-07-23T01:39:36.929Z,26.77
2018-07-23T01:42:06.059Z,26.68
2018-07-23T01:44:35.116Z,26.27
2018-07-23T01:47:03.938Z,27.00
2018-07-23T01:49:32.614Z,26.70
2018-07-23T01:52:01.372Z,28.47
2018-07-23T01:54:30.175Z,27.82
2018-07-23T01:56:59.018Z,28.38
2018-07-23T01:59:27.754Z,29.07
2018-07-23T02:01:56.630Z,29.87
2018-07-23T02:04:25.381Z,29.57
2018-07-23T02:06:54.207Z,29.17
2018-07-23T02:09:22.948Z,29.82
2018-07-23T02:11:51.761Z,30.52
2018-07-23T02:14:20.514Z,29.50
2018-07-23T02:16:49.369Z,30.35
2018-07-23T02:19:18.129Z,30.15
2018-07-23T02:21:46.936Z,31.80
2018-07-23T02:24:15.628Z,31.37
2018-07-23T02:26:44.379Z,30.48
2018-07-23T02:29:13.241Z,32.48
2018-07-23T02:31:42.078Z,31.50
2018-07-23T02:34:10.776Z,30.72
2018-07-23T02:36:39.510Z,31.97
2018-07-23T02:39:09.847Z,30.97
2018-07-23T02:41:38.536Z,31.15
2018-07-23T02:44:07.446Z,30.70
2018-07-23T02:46:36.194Z,30.77
2018-07-23T02:49:04.970Z,31.77
2018-07-23T02:51:33.634Z,32.70
2018-07-23T02:54:02.366Z,31.20
2018-07-23T02:56:31.020Z,31.97
2018-07-23T02:58:59.895Z,33.28
2018-07-23T03:01:28.626Z,32.37
2018-07-23T03:03:57.932Z,33.23
2018-07-23T03:06:28.358Z,32.30
2018-07-23T03:08:57.195Z,32.28
2018-07-23T03:11:26.202Z,32.75
2018-07-23T03:13:54.887Z,32.88
2018-07-23T03:16:24.597Z,32.93
2018-07-23T03:18:53.355Z,33.70
2018-07-23T03:21:22.249Z,32.65
2018-07-23T03:23:51.769Z,33.85
2018-07-23T03:26:20.611Z,35.00
2018-07-23T03:28:49.926Z,34.23
2018-07-23T03:31:18.654Z,34.35
2018-07-23T03:33:47.335Z,35.58
2018-07-23T03:36:16.157Z,33.83
2018-07-23T03:38:44.865Z,34.85
2018-07-23T03:41:13.606Z,35.70
2018-07-23T03:43:42.463Z,35.73
2018-07-23T03:46:11.035Z,33.40
2018-07-23T03:48:39.822Z,36.38
2018-07-23T03:51:08.518Z,34.65
2018-07-23T03:53:37.298Z,35.45
2018-07-23T03:56:06.312Z,37.30
2018-07-23T03:58:35.275Z,35.67
2018-07-23T04:01:03.947Z,35.75
2018-07-23T04:03:32.715Z,35.38
2018-07-23T04:06:01.474Z,34.63
2018-07-23T04:08:30.150Z,35.35
2018-07-23T04:10:58.829Z,34.70
2018-07-23T04:13:27.588Z,34.55
2018-07-23T04:15:56.409Z,34.65
2018-07-23T04:18:29.750Z,35.15
2018-07-23T04:21:02.591Z,36.38
2018-07-23T04:23:31.431Z,35.78
2018-07-23T04:26:00.111Z,35.80
2018-07-23T04:28:30.125Z,36.42
2018-07-23T04:30:58.835Z,35.28
2018-07-23T04:33:27.534Z,36.40
2018-07-23T04:35:56.386Z,35.80
2018-07-23T04:38:25.131Z,35.63
2018-07-23T04:40:53.914Z,35.68
2018-07-23T04:43:23.032Z,36.70
2018-07-23T04:45:51.739Z,35.50
2018-07-23T04:48:20.485Z,36.10
2018-07-23T04:50:49.154Z,37.40
2018-07-23T04:53:17.831Z,38.08
2018-07-23T04:55:46.544Z,37.13
2018-07-23T04:58:15.144Z,38.15
2018-07-23T05:00:43.933Z,37.38
2018-07-23T05:03:12.678Z,38.63
2018-07-23T05:05:41.533Z,37.20
2018-07-23T05:08:10.204Z,38.73
2018-07-23T05:10:38.944Z,37.67
2018-07-23T05:13:07.710Z,37.43
2018-07-23T05:15:36.472Z,36.93
2018-07-23T05:18:05.645Z,37.75
2018-07-23T05:20:34.299Z,37.48
2018-07-23T05:23:02.994Z,37.87
2018-07-23T05:25:31.720Z,38.95
2018-07-23T05:28:00.522Z,39.27
2018-07-23T05:30:29.237Z,37.33
2018-07-23T05:32:57.954Z,38.75
2018-07-23T05:35:26.759Z,37.80
2018-07-23T05:37:57.517Z,39.03
2018-07-23T05:40:26.264Z,37.45
2018-07-23T05:42:54.952Z,39.07
2018-07-23T05:46:53.086Z,38.35
2018-07-23T05:49:21.880Z,38.67
2018-07-23T05:51:50.502Z,38.73
2018-07-23T05:54:19.161Z,36.98
2018-07-23T05:56:47.898Z,38.35
2018-07-23T05:59:16.595Z,37.55
2018-07-23T06:01:45.368Z,37.83
2018-07-23T06:04:14.025Z,35.60
2018-07-23T06:06:42.811Z,35.88
2018-07-23T06:09:11.528Z,34.67
2018-07-23T06:11:40.210Z,35.50
2018-07-23T06:14:08.893Z,34.65
2018-07-23T06:16:39.008Z,34.43
2018-07-23T06:19:07.731Z,34.03
2018-07-23T06:21:36.389Z,34.50
2018-07-23T06:24:05.763Z,33.58
2018-07-23T06:26:35.848Z,33.13
2018-07-23T06:29:04.665Z,33.05
2018-07-23T06:31:37.289Z,31.65
2018-07-23T06:34:10.101Z,31.48
2018-07-23T06:36:45.497Z,30.88
2018-07-23T06:39:14.532Z,31.43
2018-07-23T06:41:43.206Z,31.30
2018-07-23T06:44:11.955Z,30.43
2018-07-23T06:46:42.726Z,29.80
2018-07-23T06:49:11.510Z,29.60
2018-07-23T06:51:40.225Z,28.90
2018-07-23T06:54:09.299Z,28.85
2018-07-23T06:56:38.399Z,29.60
2018-07-23T06:59:14.836Z,29.20
2018-07-23T07:01:48.830Z,28.90
2018-07-23T07:04:17.725Z,28.52
2018-07-23T07:06:48.741Z,26.62
2018-07-23T07:09:18.113Z,26.50
2018-07-23T07:11:47.203Z,25.55
2018-07-23T07:14:18.768Z,24.80
2018-07-23T07:16:47.585Z,24.25
2018-07-23T07:19:17.059Z,23.70
2018-07-23T07:21:45.835Z,23.50
2018-07-23T07:24:17.608Z,23.83
2018-07-23T07:26:50.235Z,23.38
2018-07-23T07:29:19.349Z,22.65
2018-07-23T07:31:48.125Z,22.70
2018-07-23T07:34:16.745Z,22.58
2018-07-23T07:36:45.612Z,22.10
2018-07-23T07:39:14.576Z,20.87
2018-07-23T07:41:43.357Z,21.42
2018-07-23T07:44:12.215Z,21.87
2018-07-23T07:46:41.368Z,21.17
2018-07-23T07:49:10.335Z,20.93
2018-07-23T07:51:39.605Z,20.10
2018-07-23T07:54:08.650Z,19.87
2018-07-23T07:56:37.510Z,19.35
2018-07-23T07:59:07.114Z,20.20
2018-07-23T08:08:19.987Z,17.73
2018-07-23T08:10:48.966Z,16.45
2018-07-23T08:13:17.718Z,16.75
2018-07-23T08:15:51.731Z,17.30
2018-07-23T08:18:20.543Z,16.27
2018-07-23T08:20:49.290Z,16.70
2018-07-23T08:23:24.392Z,15.83
2018-07-23T08:25:59.480Z,16.23
2018-07-23T08:28:28.456Z,15.93
2018-07-23T08:30:57.141Z,15.88
2018-07-23T08:33:25.855Z,15.48
2018-07-23T08:35:55.942Z,15.40
2018-07-23T08:38:24.632Z,15.57
2018-07-23T08:40:56.968Z,15.05
2018-07-23T08:43:25.781Z,15.60
2018-07-23T08:45:54.554Z,15.50
2018-07-23T08:48:23.448Z,15.70
2018-07-23T08:50:52.201Z,15.50
2018-07-23T08:53:25.043Z,15.32
2018-07-23T08:55:58.970Z,15.35
2018-07-23T08:58:28.140Z,15.43
2018-07-23T09:00:56.779Z,15.70
2018-07-23T09:03:25.444Z,15.07
2018-07-23T09:05:54.063Z,14.07
2018-07-23T09:08:24.126Z,13.65
2018-07-23T09:10:53.008Z,13.55
2018-07-23T09:13:21.863Z,14.20
2018-07-23T09:15:57.450Z,13.98
2018-07-23T09:18:33.410Z,13.50
2018-07-23T09:21:11.788Z,14.60
2018-07-23T09:23:54.955Z,14.83
2018-07-23T09:26:28.170Z,14.80
2018-07-23T09:29:00.712Z,14.35
2018-07-23T09:31:31.292Z,14.20
2018-07-23T09:34:00.048Z,14.60
2018-07-23T09:36:28.784Z,16.48
2018-07-23T09:38:57.426Z,13.70
2018-07-23T09:41:27.447Z,14.93
2018-07-23T09:43:56.111Z,14.50
2018-07-23T09:46:24.761Z,13.93
2018-07-23T09:48:53.473Z,14.90
2018-07-23T09:51:22.184Z,14.65
2018-07-23T09:53:51.304Z,15.20
2018-07-23T09:56:20.076Z,14.63
2018-07-23T09:58:48.856Z,14.40
2018-07-23T10:01:19.242Z,14.80
2018-07-23T10:03:53.202Z,14.15
2018-07-23T10:06:21.982Z,14.33
2018-07-23T10:08:50.568Z,15.10
2018-07-23T10:11:19.358Z,15.27
2018-07-23T10:13:48.240Z,14.30
2018-07-23T10:16:18.483Z,14.73
2018-07-23T10:18:47.312Z,14.97
2018-07-23T10:21:16.086Z,14.75
2018-07-23T10:23:45.692Z,15.67
2018-07-23T10:26:15.087Z,16.02
2018-07-23T10:28:48.900Z,15.32
2018-07-23T10:31:18.009Z,14.30
2018-07-23T10:33:46.780Z,13.15
2018-07-23T10:36:18.295Z,15.27
2018-07-23T10:38:55.418Z,12.67
2018-07-23T10:41:31.543Z,12.03
2018-07-23T10:44:01.884Z,19.32
2018-07-23T10:46:30.663Z,13.55
2018-07-23T10:48:59.338Z,13.03
2018-07-23T10:51:29.044Z,14.93
2018-07-23T10:54:00.425Z,12.63
2018-07-23T10:56:31.758Z,11.85
2018-07-23T10:59:00.463Z,12.35
2018-07-23T11:01:29.153Z,12.18
2018-07-23T11:03:57.822Z,13.22
2018-07-23T11:06:26.964Z,14.10
2018-07-23T11:08:55.913Z,11.95
2018-07-23T11:11:24.615Z,12.98
2018-07-23T11:13:54.482Z,12.47
2018-07-23T11:16:25.869Z,13.43
2018-07-23T11:18:54.538Z,13.20
2018-07-23T11:21:23.234Z,12.53
2018-07-23T11:23:55.400Z,12.10
2018-07-23T11:26:24.305Z,12.23
2018-07-23T11:28:53.086Z,12.03
2018-07-23T11:31:22.575Z,12.20
2018-07-23T11:33:52.839Z,12.20
2018-07-23T11:36:22.423Z,11.28
2018-07-23T11:38:51.038Z,11.18
2018-07-23T11:41:19.891Z,11.50
2018-07-23T11:43:48.697Z,10.10
2018-07-23T11:46:24.982Z,10.53
2018-07-23T11:48:47.803Z,10.43
2018-07-23T11:51:16.621Z,10.90
2018-07-23T11:53:45.503Z,11.15
2018-07-23T11:56:14.232Z,12.10
2018-07-23T11:58:42.917Z,12.20
2018-07-23T12:01:11.676Z,11.75
2018-07-23T12:03:42.923Z,12.00
2018-07-23T12:06:11.751Z,12.13
2018-07-23T12:08:40.543Z,12.20
2018-07-23T12:11:09.327Z,11.95
2018-07-23T12:13:40.632Z,12.17
2018-07-23T12:16:13.578Z,11.80
2018-07-23T12:18:42.620Z,11.28
2018-07-23T12:21:17.448Z,10.60
2018-07-23T12:23:46.261Z,10.68
2018-07-23T12:26:15.079Z,10.25
2018-07-23T12:28:45.727Z,10.67
2018-07-23T12:31:14.510Z,10.95
2018-07-23T12:33:43.334Z,10.68
2018-07-23T12:36:12.059Z,9.98
2018-07-23T12:38:40.787Z,10.43
2018-07-23T12:41:09.574Z,10.80
2018-07-23T12:43:38.251Z,9.88
2018-07-23T12:46:14.850Z,10.30
2018-07-23T12:48:43.774Z,9.85
2018-07-23T12:51:12.635Z,9.80
2018-07-23T12:53:41.341Z,10.00
2018-07-23T12:56:11.323Z,10.98
2018-07-23T12:58:41.661Z,11.30
2018-07-23T13:01:10.850Z,11.90
2018-07-23T13:03:40.523Z,11.40
2018-07-23T13:06:09.763Z,12.05
2018-07-23T13:08:39.667Z,11.53
2018-07-23T13:11:09.504Z,11.10
2018-07-23T13:13:38.575Z,11.30
2018-07-23T13:16:07.866Z,12.07
2018-07-23T13:18:45.995Z,11.07
2018-07-23T13:21:27.429Z,10.10
2018-07-23T13:24:05.964Z,10.50
2018-07-23T13:26:35.390Z,11.50
2018-07-23T13:29:04.105Z,12.18
2018-07-23T13:31:32.777Z,12.00
2018-07-23T13:34:01.461Z,12.13
2018-07-23T13:36:34.578Z,12.07
2018-07-23T13:39:10.139Z,12.37
2018-07-23T13:41:39.477Z,12.30
2018-07-23T13:44:09.040Z,12.40
2018-07-23T13:46:42.820Z,12.43
2018-07-23T13:49:11.526Z,12.13
2018-07-23T13:51:44.102Z,11.45
2018-07-23T13:54:13.885Z,10.30
2018-07-23T13:56:42.648Z,9.93
2018-07-23T13:59:11.423Z,10.03
2018-07-23T14:01:40.220Z,10.55
2018-07-23T14:04:08.970Z,10.70
2018-07-23T14:06:37.919Z,11.12
2018-07-23T14:09:08.618Z,11.97
2018-07-23T14:11:37.332Z,12.05
2018-07-23T14:14:06.408Z,11.78
2018-07-23T14:16:35.303Z,11.83
2018-07-23T14:19:05.231Z,11.03
2018-07-23T14:21:33.895Z,11.70
2018-07-23T14:24:02.628Z,12.85
2018-07-23T14:26:35.787Z,13.38
2018-07-23T14:29:12.164Z,13.15
2018-07-23T14:31:42.160Z,12.80
2018-07-23T14:34:11.109Z,13.13
2018-07-23T14:36:42.982Z,13.08
2018-07-23T14:39:14.212Z,11.77
2018-07-23T14:41:43.192Z,11.28
2018-07-23T14:44:12.138Z,11.10
2018-07-23T14:46:46.499Z,11.03
2018-07-23T14:49:15.498Z,11.38
2018-07-23T14:51:43.975Z,9.78
2018-07-23T14:54:14.136Z,10.32
2018-07-23T14:56:42.830Z,10.77
2018-07-23T14:59:11.645Z,10.60
2018-07-23T15:01:40.467Z,10.60
2018-07-23T15:04:09.229Z,11.47
2018-07-23T15:06:37.913Z,11.80
2018-07-23T15:09:08.120Z,12.43
2018-07-23T15:11:36.828Z,13.58
2018-07-23T15:14:05.877Z,13.27
2018-07-23T15:16:34.651Z,14.23
2018-07-23T15:19:03.623Z,14.20
2018-07-23T15:21:32.319Z,14.50
2018-07-23T15:24:01.222Z,14.80
2018-07-23T15:26:29.952Z,15.00
2018-07-23T15:28:59.458Z,14.85
2018-07-23T15:31:28.230Z,15.40
2018-07-23T15:33:57.081Z,16.33
2018-07-23T15:36:25.868Z,17.12
2018-07-23T15:38:54.578Z,16.13
2018-07-23T15:41:23.326Z,16.95
2018-07-23T15:43:52.149Z,15.57
2018-07-23T15:46:21.362Z,16.87
2018-07-23T15:48:49.987Z,16.20
2018-07-23T15:51:18.815Z,16.20
2018-07-23T15:53:49.428Z,16.50
2018-07-23T15:56:18.105Z,16.00
2018-07-23T15:58:47.788Z,15.98
2018-07-23T16:01:16.532Z,16.97
2018-07-23T16:03:45.358Z,16.67
2018-07-23T16:06:14.160Z,16.42
2018-07-23T16:08:43.007Z,17.15
2018-07-23T16:11:17.953Z,16.42
2018-07-23T16:13:51.448Z,16.20
2018-07-23T16:16:20.309Z,16.97
2018-07-23T16:18:49.302Z,16.60
2018-07-23T16:21:20.948Z,16.00
2018-07-23T16:26:29.819Z,16.12
2018-07-23T16:28:59.105Z,17.62
2018-07-23T16:31:29.432Z,16.07
2018-07-23T16:33:58.224Z,16.62
2018-07-23T16:36:27.128Z,17.10
2018-07-23T16:38:55.853Z,17.25
2018-07-23T16:41:24.813Z,16.83
2018-07-23T16:43:55.967Z,16.75
2018-07-23T16:46:24.837Z,16.62
2018-07-23T16:48:53.711Z,17.30
2018-07-23T16:51:22.504Z,31.05
2018-07-23T16:53:51.434Z,20.55
2018-07-23T16:56:20.685Z,19.53
2018-07-23T16:58:49.945Z,17.35
2018-07-23T17:01:19.058Z,24.15
2018-07-23T17:03:47.788Z,15.68
2018-07-23T17:06:17.642Z,15.13
2018-07-23T17:08:48.549Z,18.87
2018-07-23T17:11:17.706Z,16.55
2018-07-23T17:13:46.742Z,15.93
2018-07-23T17:16:15.514Z,16.52
2018-07-23T17:18:45.909Z,29.85
2018-07-23T17:21:14.647Z,17.25
2018-07-23T17:23:45.013Z,16.40
2018-07-23T17:26:13.903Z,15.75
2018-07-23T17:28:42.722Z,15.20
2018-07-23T17:31:11.594Z,15.93
2018-07-23T17:33:40.430Z,17.25
2018-07-23T17:36:09.263Z,15.33
2018-07-23T17:38:38.073Z,16.70
2018-07-23T17:41:07.016Z,15.70
2018-07-23T17:43:42.462Z,16.82
2018-07-23T17:46:11.431Z,18.43
2018-07-23T17:48:40.304Z,22.85
2018-07-23T17:51:09.041Z,17.95
2018-07-23T17:53:37.867Z,18.17
2018-07-23T17:56:06.731Z,17.85
2018-07-23T17:58:35.450Z,18.15
2018-07-23T18:01:04.278Z,17.27
2018-07-23T18:03:33.056Z,16.73
2018-07-23T18:06:02.318Z,16.60
2018-07-23T18:08:31.088Z,16.57
2018-07-23T18:10:59.857Z,16.62
2018-07-23T18:13:28.702Z,16.60
2018-07-23T18:15:57.523Z,15.50
2018-07-23T18:18:26.261Z,15.78
2018-07-23T18:20:55.017Z,15.00
2018-07-23T18:23:23.886Z,14.23
2018-07-23T18:25:52.629Z,13.72
2018-07-23T18:28:22.341Z,13.80
2018-07-23T18:30:52.405Z,14.17
2018-07-23T18:33:22.340Z,13.62
2018-07-23T18:35:52.217Z,12.37
2018-07-23T18:38:20.962Z,11.60
2018-07-23T18:40:49.833Z,10.48
2018-07-23T18:43:20.146Z,10.77
2018-07-23T18:45:49.073Z,10.50
2018-07-23T18:49:30.367Z,10.85
2018-07-23T18:51:59.704Z,10.30
2018-07-23T18:54:30.330Z,9.93
2018-07-23T18:57:00.169Z,10.50
2018-07-23T18:59:32.853Z,10.93
2018-07-23T19:02:02.901Z,10.70
2018-07-23T19:04:31.818Z,18.05
2018-07-23T19:07:00.719Z,12.00
2018-07-23T19:09:30.139Z,10.55
2018-07-23T19:11:59.612Z,9.90
2018-07-23T19:14:28.336Z,11.43
2018-07-23T19:16:58.382Z,14.87
2018-07-23T19:19:27.394Z,11.93
2018-07-23T19:21:56.270Z,10.60
2018-07-23T19:24:25.188Z,8.80
2018-07-23T19:26:53.950Z,8.48
2018-07-23T19:29:22.937Z,9.10
2018-07-23T19:31:51.798Z,9.50
2018-07-23T19:34:20.571Z,9.60
2018-07-23T19:36:49.617Z,11.00
2018-07-23T19:39:19.603Z,11.55
2018-07-23T19:41:48.599Z,12.53
2018-07-23T19:44:17.423Z,14.20
2018-07-23T19:46:47.255Z,13.13
2018-07-23T19:49:16.028Z,14.50
2018-07-23T19:51:50.508Z,15.10
2018-07-23T19:54:19.453Z,15.28
2018-07-23T19:56:48.271Z,15.20
2018-07-23T19:59:17.217Z,15.45
2018-07-23T20:01:45.993Z,15.48
2018-07-23T20:04:15.019Z,15.25
2018-07-23T20:06:43.794Z,15.20
2018-07-23T20:09:12.635Z,15.83
2018-07-23T20:11:41.447Z,15.78
2018-07-23T20:14:10.161Z,15.40
2018-07-23T20:16:38.894Z,15.40
2018-07-23T20:19:07.724Z,15.08
2018-07-23T20:21:36.448Z,14.90
2018-07-23T20:24:05.326Z,14.68
2018-07-23T20:26:34.129Z,14.03
2018-07-23T20:29:02.923Z,13.75
2018-07-23T20:31:34.097Z,13.63
2018-07-23T20:34:03.490Z,13.00
2018-07-23T20:36:32.338Z,13.00
2018-07-23T20:39:01.198Z,12.65
2018-07-23T20:41:29.918Z,12.80
2018-07-23T20:43:58.661Z,12.20
2018-07-23T20:46:27.486Z,12.60
2018-07-23T20:48:56.416Z,12.25
2018-07-23T20:51:25.167Z,12.30
2018-07-23T20:53:53.991Z,12.20
2018-07-23T20:56:23.034Z,11.87
2018-07-23T20:58:51.908Z,11.50
2018-07-23T21:01:20.727Z,11.28
2018-07-23T21:03:49.778Z,11.25
2018-07-23T21:06:18.621Z,11.13
2018-07-23T21:08:47.374Z,9.35
2018-07-23T21:11:16.113Z,9.90
2018-07-23T21:13:44.963Z,10.20
2018-07-23T21:16:14.831Z,22.42
2018-07-23T21:18:43.659Z,11.47
2018-07-23T21:21:15.771Z,9.43
2018-07-23T21:23:44.577Z,9.68
2018-07-23T21:26:13.230Z,9.23
2018-07-23T21:28:41.931Z,8.53
2018-07-23T21:31:12.156Z,8.45
2018-07-23T21:33:40.838Z,8.70
2018-07-23T21:36:09.531Z,8.10
2018-07-23T21:38:38.317Z,8.28
2018-07-23T21:41:07.160Z,8.55
2018-07-23T21:43:35.887Z,8.28
2018-07-23T21:46:04.613Z,8.33
2018-07-23T21:48:34.740Z,8.50
2018-07-23T21:51:03.631Z,8.13
2018-07-23T21:53:32.583Z,8.13
2018-07-23T21:56:01.346Z,8.50
2018-07-23T21:58:30.094Z,8.30
2018-07-23T22:00:58.949Z,8.33
2018-07-23T22:03:27.846Z,7.72
2018-07-23T22:05:56.567Z,7.97
2018-07-23T22:08:25.571Z,7.67
2018-07-23T22:10:54.277Z,7.45
2018-07-23T22:13:25.607Z,7.75
2018-07-23T22:15:54.400Z,7.30
2018-07-23T22:18:23.191Z,7.25
2018-07-23T22:20:51.950Z,7.53
2018-07-23T22:23:20.638Z,7.55
2018-07-23T22:25:49.332Z,7.83
2018-07-23T22:28:18.755Z,7.72
2018-07-23T22:30:47.412Z,8.13
2018-07-23T22:33:16.645Z,8.55
2018-07-23T22:35:46.060Z,8.13
2018-07-23T22:38:14.800Z,8.35
2018-07-23T22:40:47.002Z,8.23
2018-07-23T22:43:15.787Z,8.70
2018-07-23T22:45:45.055Z,8.45
2018-07-23T22:48:13.961Z,8.25
2018-07-23T22:50:44.686Z,8.93
2018-07-23T22:53:13.469Z,8.70
2018-07-23T22:55:42.277Z,8.85
2018-07-23T22:58:11.093Z,8.95
2018-07-23T23:00:39.722Z,9.18
2018-07-23T23:03:10.375Z,8.55
2018-07-23T23:05:39.108Z,9.18
2018-07-23T23:08:07.820Z,8.80
2018-07-23T23:10:36.547Z,9.35
2018-07-23T23:13:05.414Z,9.33
2018-07-23T23:15:34.646Z,9.18
2018-07-23T23:18:03.300Z,9.93
2018-07-23T23:20:32.054Z,9.60
2018-07-23T23:23:00.958Z,9.35
2018-07-23T23:25:29.833Z,9.78
2018-07-23T23:27:58.614Z,9.60
2018-07-23T23:30:27.170Z,9.57
2018-07-23T23:32:55.977Z,10.13
2018-07-23T23:35:24.684Z,10.60
2018-07-23T23:37:53.376Z,9.85
2018-07-23T23:40:22.112Z,10.70
2018-07-23T23:42:50.878Z,9.80
2018-07-23T23:45:20.358Z,10.23
2018-07-23T23:47:49.164Z,10.48
2018-07-23T23:50:17.841Z,10.32
2018-07-23T23:52:46.542Z,10.67
2018-07-23T23:55:15.355Z,10.98
2018-07-23T23:57:44.123Z,11.15
